Massena International Richards Field Massena US
ICAO: KMSS
IATA: MSS
Category: Medium
Scheduled Services: Yes

Elevation: 215 ft
TransAlt. 18000 ft.

Airport Communications:
BOSTON APP/DEP:135.25
ASOS:128.075
BURLINGTON RDO:122.2
CTAF/UNICOM:123

KMSS Zoom In..

If Map Doesn't Load, Click Here

Runways:

(A) RW 05 length 5600 ft width 100 ft
ILS 108.70 / hdg 45

(B) RW 09 length 4000 ft width 100 ft
---- / hdg 90

(C) RW 23 length 5600 ft width 100 ft
---- / hdg 225

(D) RW 27 length 4000 ft width 100 ft
---- / hdg 270

Location; KMSS
Day. 21 / Time. 14.53 Zulu
* Altimeter: 29.85
* Temperature: 19° c. 66.2°f.
* Wind from: 190° Speed 10 kn.
Dewpoint: 19° c.
Visibility: 10 Statute Miles.
Clouds: Few 3100 ft.
Clouds: Broken 4300 ft.
Clouds: Broken 6000 ft.
Conditions: Light Rain.

KMSS 211453Z AUTO 19010KT 10SM -RA FEW031 BKN043 BKN060 19/19 A2985 RMK AO2 LTG DSNT E RAE41B52 TSB08E39 SLP108 P0024 60042 T01940194 56020


Wind From 190°
Speed 10 kn.

 
 
jpsmedia.com for Web Design worldairports.se 2018   terms of use